sensor_id;sensor_type;location;lat;lon;timestamp;P1;durP1;ratioP1;P2;durP2;ratioP2
5774;SDS011;2913;51.120;6.772;2022-12-20T00:01:18;3.40;;;1.80;;
5774;SDS011;2913;51.120;6.772;2022-12-20T00:03:48;2.38;;;1.67;;
5774;SDS011;2913;51.120;6.772;2022-12-20T00:06:15;3.70;;;1.80;;
5774;SDS011;2913;51.120;6.772;2022-12-20T00:08:41;4.68;;;1.77;;
5774;SDS011;2913;51.120;6.772;2022-12-20T00:11:07;9.73;;;1.77;;
5774;SDS011;2913;51.120;6.772;2022-12-20T00:13:36;3.92;;;1.73;;
5774;SDS011;2913;51.120;6.772;2022-12-20T00:16:06;4.53;;;2.00;;
5774;SDS011;2913;51.120;6.772;2022-12-20T00:18:35;2.60;;;1.65;;
5774;SDS011;2913;51.120;6.772;2022-12-20T00:21:04;3.38;;;1.77;;
5774;SDS011;2913;51.120;6.772;2022-12-20T00:23:31;5.15;;;1.50;;
5774;SDS011;2913;51.120;6.772;2022-12-20T00:26:06;3.92;;;2.13;;
5774;SDS011;2913;51.120;6.772;2022-12-20T00:28:38;4.75;;;2.08;;
5774;SDS011;2913;51.120;6.772;2022-12-20T00:31:07;8.75;;;1.80;;
5774;SDS011;2913;51.120;6.772;2022-12-20T00:33:35;7.35;;;2.38;;
5774;SDS011;2913;51.120;6.772;2022-12-20T00:36:01;4.35;;;2.00;;
5774;SDS011;2913;51.120;6.772;2022-12-20T00:38:28;7.20;;;2.25;;
5774;SDS011;2913;51.120;6.772;2022-12-20T00:41:00;4.30;;;1.88;;
5774;SDS011;2913;51.120;6.772;2022-12-20T00:43:30;7.10;;;2.28;;
5774;SDS011;2913;51.120;6.772;2022-12-20T00:45:57;5.93;;;2.50;;
5774;SDS011;2913;51.120;6.772;2022-12-20T00:48:23;7.07;;;1.98;;
5774;SDS011;2913;51.120;6.772;2022-12-20T00:50:49;3.90;;;2.05;;
5774;SDS011;2913;51.120;6.772;2022-12-20T00:53:15;3.28;;;2.00;;
5774;SDS011;2913;51.120;6.772;2022-12-20T00:55:43;9.80;;;2.50;;
5774;SDS011;2913;51.120;6.772;2022-12-20T00:58:11;6.35;;;2.05;;
5774;SDS011;2913;51.120;6.772;2022-12-20T01:00:39;6.38;;;2.22;;
5774;SDS011;2913;51.120;6.772;2022-12-20T01:03:05;5.55;;;2.30;;
5774;SDS011;2913;51.120;6.772;2022-12-20T01:05:31;3.15;;;1.98;;
5774;SDS011;2913;51.120;6.772;2022-12-20T01:08:00;5.25;;;2.28;;
5774;SDS011;2913;51.120;6.772;2022-12-20T01:10:26;4.00;;;2.00;;
5774;SDS011;2913;51.120;6.772;2022-12-20T01:12:51;4.60;;;2.30;;
5774;SDS011;2913;51.120;6.772;2022-12-20T01:15:17;4.15;;;2.05;;
5774;SDS011;2913;51.120;6.772;2022-12-20T01:17:43;4.57;;;2.20;;
5774;SDS011;2913;51.120;6.772;2022-12-20T01:20:09;4.50;;;2.10;;
5774;SDS011;2913;51.120;6.772;2022-12-20T01:22:37;4.32;;;2.20;;
5774;SDS011;2913;51.120;6.772;2022-12-20T01:25:05;3.70;;;2.67;;
5774;SDS011;2913;51.120;6.772;2022-12-20T01:27:31;3.70;;;2.10;;
5774;SDS011;2913;51.120;6.772;2022-12-20T01:29:57;6.90;;;2.50;;
5774;SDS011;2913;51.120;6.772;2022-12-20T01:32:25;4.60;;;2.33;;
5774;SDS011;2913;51.120;6.772;2022-12-20T01:34:53;5.55;;;2.30;;
5774;SDS011;2913;51.120;6.772;2022-12-20T01:37:18;4.15;;;2.20;;
5774;SDS011;2913;51.120;6.772;2022-12-20T01:39:44;6.28;;;2.20;;
5774;SDS011;2913;51.120;6.772;2022-12-20T01:42:13;6.57;;;2.30;;
5774;SDS011;2913;51.120;6.772;2022-12-20T01:47:08;6.03;;;2.50;;
5774;SDS011;2913;51.120;6.772;2022-12-20T01:49:39;9.30;;;2.33;;
5774;SDS011;2913;51.120;6.772;2022-12-20T01:52:12;5.28;;;2.30;;
5774;SDS011;2913;51.120;6.772;2022-12-20T01:54:39;7.43;;;3.00;;
5774;SDS011;2913;51.120;6.772;2022-12-20T01:57:20;7.00;;;3.10;;
5774;SDS011;2913;51.120;6.772;2022-12-20T01:59:53;8.85;;;2.30;;
5774;SDS011;2913;51.120;6.772;2022-12-20T02:02:22;5.32;;;2.53;;
5774;SDS011;2913;51.120;6.772;2022-12-20T02:04:50;6.57;;;2.50;;
5774;SDS011;2913;51.120;6.772;2022-12-20T02:07:17;8.57;;;2.35;;
5774;SDS011;2913;51.120;6.772;2022-12-20T02:09:47;4.78;;;2.22;;
5774;SDS011;2913;51.120;6.772;2022-12-20T02:12:15;5.80;;;2.30;;
5774;SDS011;2913;51.120;6.772;2022-12-20T02:33:31;5.05;;;2.50;;
5774;SDS011;2913;51.120;6.772;2022-12-20T02:35:59;6.47;;;2.60;;
5774;SDS011;2913;51.120;6.772;2022-12-20T02:38:31;5.68;;;3.17;;
5774;SDS011;2913;51.120;6.772;2022-12-20T02:41:46;7.65;;;3.75;;
5774;SDS011;2913;51.120;6.772;2022-12-20T02:43:48;5.82;;;3.20;;
5774;SDS011;2913;51.120;6.772;2022-12-20T02:46:37;4.50;;;2.83;;
5774;SDS011;2913;51.120;6.772;2022-12-20T02:49:07;10.88;;;3.25;;
5774;SDS011;2913;51.120;6.772;2022-12-20T02:51:40;9.13;;;3.22;;
5774;SDS011;2913;51.120;6.772;2022-12-20T02:54:12;5.20;;;3.20;;
5774;SDS011;2913;51.120;6.772;2022-12-20T02:56:40;8.77;;;3.28;;
5774;SDS011;2913;51.120;6.772;2022-12-20T02:59:14;7.35;;;3.05;;
5774;SDS011;2913;51.120;6.772;2022-12-20T03:01:49;6.57;;;3.20;;
5774;SDS011;2913;51.120;6.772;2022-12-20T03:04:22;8.80;;;3.75;;
5774;SDS011;2913;51.120;6.772;2022-12-20T03:06:57;12.23;;;3.90;;
5774;SDS011;2913;51.120;6.772;2022-12-20T03:09:44;5.57;;;3.33;;
5774;SDS011;2913;51.120;6.772;2022-12-20T03:12:10;8.25;;;3.47;;
5774;SDS011;2913;51.120;6.772;2022-12-20T03:14:38;9.63;;;4.07;;
5774;SDS011;2913;51.120;6.772;2022-12-20T03:17:06;7.53;;;4.07;;
5774;SDS011;2913;51.120;6.772;2022-12-20T03:19:32;10.60;;;3.80;;
5774;SDS011;2913;51.120;6.772;2022-12-20T03:21:58;8.82;;;4.35;;
5774;SDS011;2913;51.120;6.772;2022-12-20T03:24:26;6.57;;;3.92;;
5774;SDS011;2913;51.120;6.772;2022-12-20T03:26:51;10.88;;;3.88;;
5774;SDS011;2913;51.120;6.772;2022-12-20T03:29:17;12.55;;;5.05;;
5774;SDS011;2913;51.120;6.772;2022-12-20T03:31:43;7.88;;;4.40;;
5774;SDS011;2913;51.120;6.772;2022-12-20T03:34:10;7.05;;;4.20;;
5774;SDS011;2913;51.120;6.772;2022-12-20T03:36:36;9.43;;;4.40;;
5774;SDS011;2913;51.120;6.772;2022-12-20T03:39:02;9.15;;;4.05;;
5774;SDS011;2913;51.120;6.772;2022-12-20T03:41:30;9.18;;;4.82;;
5774;SDS011;2913;51.120;6.772;2022-12-20T03:43:56;7.82;;;4.38;;
5774;SDS011;2913;51.120;6.772;2022-12-20T03:46:24;8.95;;;4.05;;
5774;SDS011;2913;51.120;6.772;2022-12-20T03:48:49;8.85;;;4.40;;
5774;SDS011;2913;51.120;6.772;2022-12-20T03:51:15;7.00;;;4.18;;
5774;SDS011;2913;51.120;6.772;2022-12-20T03:53:43;12.27;;;4.60;;
5774;SDS011;2913;51.120;6.772;2022-12-20T03:56:08;6.78;;;3.97;;
5774;SDS011;2913;51.120;6.772;2022-12-20T03:58:37;7.60;;;4.72;;
5774;SDS011;2913;51.120;6.772;2022-12-20T04:01:15;9.40;;;4.32;;
5774;SDS011;2913;51.120;6.772;2022-12-20T04:03:41;9.75;;;4.30;;
5774;SDS011;2913;51.120;6.772;2022-12-20T04:06:07;6.75;;;4.20;;
5774;SDS011;2913;51.120;6.772;2022-12-20T04:08:35;6.72;;;3.67;;
5774;SDS011;2913;51.120;6.772;2022-12-20T04:11:00;8.13;;;4.68;;
5774;SDS011;2913;51.120;6.772;2022-12-20T04:13:44;13.73;;;4.45;;
5774;SDS011;2913;51.120;6.772;2022-12-20T04:16:14;10.82;;;4.30;;
5774;SDS011;2913;51.120;6.772;2022-12-20T04:18:41;7.18;;;4.35;;
5774;SDS011;2913;51.120;6.772;2022-12-20T04:21:07;8.45;;;4.07;;
5774;SDS011;2913;51.120;6.772;2022-12-20T04:23:34;8.45;;;4.70;;
5774;SDS011;2913;51.120;6.772;2022-12-20T04:26:02;11.77;;;5.10;;
5774;SDS011;2913;51.120;6.772;2022-12-20T04:28:31;8.48;;;4.68;;
5774;SDS011;2913;51.120;6.772;2022-12-20T04:30:57;11.20;;;4.47;;
5774;SDS011;2913;51.120;6.772;2022-12-20T04:33:23;9.38;;;4.72;;
5774;SDS011;2913;51.120;6.772;2022-12-20T04:35:52;12.15;;;4.75;;
5774;SDS011;2913;51.120;6.772;2022-12-20T04:38:19;12.48;;;4.97;;
5774;SDS011;2913;51.120;6.772;2022-12-20T04:40:46;5.93;;;3.85;;
5774;SDS011;2913;51.120;6.772;2022-12-20T04:43:13;9.40;;;5.38;;
5774;SDS011;2913;51.120;6.772;2022-12-20T04:45:39;9.85;;;4.75;;
5774;SDS011;2913;51.120;6.772;2022-12-20T04:48:05;7.93;;;4.13;;
5774;SDS011;2913;51.120;6.772;2022-12-20T04:50:30;9.73;;;4.28;;
5774;SDS011;2913;51.120;6.772;2022-12-20T04:52:58;11.25;;;4.32;;
5774;SDS011;2913;51.120;6.772;2022-12-20T04:55:43;8.60;;;4.25;;
5774;SDS011;2913;51.120;6.772;2022-12-20T04:58:08;11.02;;;3.85;;
5774;SDS011;2913;51.120;6.772;2022-12-20T05:00:36;14.38;;;3.90;;
5774;SDS011;2913;51.120;6.772;2022-12-20T05:03:02;9.40;;;4.55;;
5774;SDS011;2913;51.120;6.772;2022-12-20T05:05:27;7.00;;;4.15;;
5774;SDS011;2913;51.120;6.772;2022-12-20T05:07:53;10.02;;;4.50;;
5774;SDS011;2913;51.120;6.772;2022-12-20T05:10:19;8.77;;;4.60;;
5774;SDS011;2913;51.120;6.772;2022-12-20T05:12:47;11.90;;;4.90;;
5774;SDS011;2913;51.120;6.772;2022-12-20T05:15:13;7.30;;;4.45;;
5774;SDS011;2913;51.120;6.772;2022-12-20T05:17:41;14.07;;;4.68;;
5774;SDS011;2913;51.120;6.772;2022-12-20T05:20:09;14.50;;;5.13;;
5774;SDS011;2913;51.120;6.772;2022-12-20T05:22:35;8.00;;;4.45;;
5774;SDS011;2913;51.120;6.772;2022-12-20T05:25:19;14.48;;;4.93;;
5774;SDS011;2913;51.120;6.772;2022-12-20T05:28:03;9.32;;;4.07;;
5774;SDS011;2913;51.120;6.772;2022-12-20T05:30:29;12.25;;;4.50;;
5774;SDS011;2913;51.120;6.772;2022-12-20T05:32:57;11.88;;;4.82;;
5774;SDS011;2913;51.120;6.772;2022-12-20T05:35:23;9.45;;;4.97;;
5774;SDS011;2913;51.120;6.772;2022-12-20T05:37:48;8.73;;;5.07;;
5774;SDS011;2913;51.120;6.772;2022-12-20T05:40:14;15.13;;;4.68;;
5774;SDS011;2913;51.120;6.772;2022-12-20T05:42:42;9.55;;;4.40;;
5774;SDS011;2913;51.120;6.772;2022-12-20T05:45:08;12.32;;;5.18;;
5774;SDS011;2913;51.120;6.772;2022-12-20T05:47:35;10.75;;;3.92;;
5774;SDS011;2913;51.120;6.772;2022-12-20T05:50:03;8.80;;;5.00;;
5774;SDS011;2913;51.120;6.772;2022-12-20T05:52:29;7.43;;;4.13;;
5774;SDS011;2913;51.120;6.772;2022-12-20T05:54:55;11.18;;;4.57;;
5774;SDS011;2913;51.120;6.772;2022-12-20T05:57:20;8.48;;;4.60;;
5774;SDS011;2913;51.120;6.772;2022-12-20T05:59:51;8.48;;;4.32;;
5774;SDS011;2913;51.120;6.772;2022-12-20T06:02:17;9.70;;;3.20;;
5774;SDS011;2913;51.120;6.772;2022-12-20T06:04:49;8.25;;;3.38;;
5774;SDS011;2913;51.120;6.772;2022-12-20T06:07:15;11.27;;;3.60;;
5774;SDS011;2913;51.120;6.772;2022-12-20T06:09:43;9.48;;;4.45;;
5774;SDS011;2913;51.120;6.772;2022-12-20T06:12:09;10.65;;;3.95;;
5774;SDS011;2913;51.120;6.772;2022-12-20T06:14:34;11.10;;;4.25;;
5774;SDS011;2913;51.120;6.772;2022-12-20T06:17:02;11.13;;;4.30;;
5774;SDS011;2913;51.120;6.772;2022-12-20T06:19:28;9.75;;;4.47;;
5774;SDS011;2913;51.120;6.772;2022-12-20T06:21:53;11.77;;;4.70;;
5774;SDS011;2913;51.120;6.772;2022-12-20T06:24:19;12.65;;;4.90;;
5774;SDS011;2913;51.120;6.772;2022-12-20T06:26:49;10.98;;;5.10;;
5774;SDS011;2913;51.120;6.772;2022-12-20T06:29:17;10.88;;;4.97;;
5774;SDS011;2913;51.120;6.772;2022-12-20T06:31:50;9.18;;;4.57;;
5774;SDS011;2913;51.120;6.772;2022-12-20T06:34:18;12.85;;;4.65;;
5774;SDS011;2913;51.120;6.772;2022-12-20T06:36:47;10.20;;;4.60;;
5774;SDS011;2913;51.120;6.772;2022-12-20T06:39:12;8.65;;;4.63;;
5774;SDS011;2913;51.120;6.772;2022-12-20T06:41:40;7.18;;;4.43;;
5774;SDS011;2913;51.120;6.772;2022-12-20T06:44:08;10.07;;;4.55;;
5774;SDS011;2913;51.120;6.772;2022-12-20T06:46:36;10.68;;;4.60;;
5774;SDS011;2913;51.120;6.772;2022-12-20T06:49:02;9.23;;;4.68;;
5774;SDS011;2913;51.120;6.772;2022-12-20T06:51:29;17.40;;;3.90;;
5774;SDS011;2913;51.120;6.772;2022-12-20T06:53:55;11.68;;;4.72;;
5774;SDS011;2913;51.120;6.772;2022-12-20T06:56:21;8.40;;;4.55;;
5774;SDS011;2913;51.120;6.772;2022-12-20T06:58:46;5.90;;;4.00;;
5774;SDS011;2913;51.120;6.772;2022-12-20T07:01:12;7.90;;;3.85;;
5774;SDS011;2913;51.120;6.772;2022-12-20T07:03:37;4.72;;;2.90;;
5774;SDS011;2913;51.120;6.772;2022-12-20T07:06:03;12.05;;;4.57;;
5774;SDS011;2913;51.120;6.772;2022-12-20T07:08:29;11.50;;;3.60;;
5774;SDS011;2913;51.120;6.772;2022-12-20T07:11:01;13.55;;;4.47;;
5774;SDS011;2913;51.120;6.772;2022-12-20T07:13:31;10.02;;;3.97;;
5774;SDS011;2913;51.120;6.772;2022-12-20T07:15:57;10.85;;;4.20;;
5774;SDS011;2913;51.120;6.772;2022-12-20T07:18:26;11.38;;;4.75;;
5774;SDS011;2913;51.120;6.772;2022-12-20T07:20:52;7.57;;;4.30;;
5774;SDS011;2913;51.120;6.772;2022-12-20T07:23:18;9.10;;;4.30;;
5774;SDS011;2913;51.120;6.772;2022-12-20T07:25:53;9.07;;;3.42;;
5774;SDS011;2913;51.120;6.772;2022-12-20T07:28:19;10.07;;;4.85;;
5774;SDS011;2913;51.120;6.772;2022-12-20T07:30:45;9.52;;;3.78;;
5774;SDS011;2913;51.120;6.772;2022-12-20T07:33:13;15.48;;;4.68;;
5774;SDS011;2913;51.120;6.772;2022-12-20T07:35:38;10.50;;;4.40;;
5774;SDS011;2913;51.120;6.772;2022-12-20T07:38:04;12.18;;;5.07;;
5774;SDS011;2913;51.120;6.772;2022-12-20T07:40:30;10.63;;;4.50;;
5774;SDS011;2913;51.120;6.772;2022-12-20T07:42:55;12.23;;;4.72;;
5774;SDS011;2913;51.120;6.772;2022-12-20T07:45:21;8.55;;;4.13;;
5774;SDS011;2913;51.120;6.772;2022-12-20T07:47:49;10.73;;;4.85;;
5774;SDS011;2913;51.120;6.772;2022-12-20T07:50:17;7.72;;;3.95;;
5774;SDS011;2913;51.120;6.772;2022-12-20T07:52:45;9.32;;;4.45;;
5774;SDS011;2913;51.120;6.772;2022-12-20T07:55:13;7.78;;;3.88;;
5774;SDS011;2913;51.120;6.772;2022-12-20T07:57:43;10.40;;;4.45;;
5774;SDS011;2913;51.120;6.772;2022-12-20T08:00:13;12.63;;;4.25;;
5774;SDS011;2913;51.120;6.772;2022-12-20T08:02:41;11.27;;;4.35;;
5774;SDS011;2913;51.120;6.772;2022-12-20T08:05:14;6.47;;;4.28;;
5774;SDS011;2913;51.120;6.772;2022-12-20T08:07:40;13.05;;;4.70;;
5774;SDS011;2913;51.120;6.772;2022-12-20T08:10:08;17.55;;;5.00;;
5774;SDS011;2913;51.120;6.772;2022-12-20T08:12:36;7.45;;;4.38;;
5774;SDS011;2913;51.120;6.772;2022-12-20T08:15:02;10.65;;;4.30;;
5774;SDS011;2913;51.120;6.772;2022-12-20T08:17:31;8.77;;;4.57;;
5774;SDS011;2913;51.120;6.772;2022-12-20T08:19:58;8.02;;;4.05;;
5774;SDS011;2913;51.120;6.772;2022-12-20T08:22:24;6.13;;;3.95;;
5774;SDS011;2913;51.120;6.772;2022-12-20T08:24:50;12.32;;;4.60;;
5774;SDS011;2913;51.120;6.772;2022-12-20T08:27:18;10.32;;;4.22;;
5774;SDS011;2913;51.120;6.772;2022-12-20T08:29:46;6.25;;;3.20;;
5774;SDS011;2913;51.120;6.772;2022-12-20T08:32:12;12.27;;;4.50;;
5774;SDS011;2913;51.120;6.772;2022-12-20T08:34:38;12.70;;;4.30;;
5774;SDS011;2913;51.120;6.772;2022-12-20T08:37:04;11.02;;;4.07;;
5774;SDS011;2913;51.120;6.772;2022-12-20T08:39:29;9.02;;;4.38;;
5774;SDS011;2913;51.120;6.772;2022-12-20T08:41:55;8.05;;;4.40;;
5774;SDS011;2913;51.120;6.772;2022-12-20T08:44:23;9.23;;;4.13;;
5774;SDS011;2913;51.120;6.772;2022-12-20T08:46:49;8.20;;;4.40;;
5774;SDS011;2913;51.120;6.772;2022-12-20T08:49:15;8.43;;;4.57;;
5774;SDS011;2913;51.120;6.772;2022-12-20T08:51:40;9.13;;;4.50;;
5774;SDS011;2913;51.120;6.772;2022-12-20T08:54:06;10.13;;;3.97;;
5774;SDS011;2913;51.120;6.772;2022-12-20T08:56:32;9.85;;;4.07;;
5774;SDS011;2913;51.120;6.772;2022-12-20T08:59:00;10.38;;;4.10;;
5774;SDS011;2913;51.120;6.772;2022-12-20T09:01:26;11.30;;;4.25;;
5774;SDS011;2913;51.120;6.772;2022-12-20T09:03:59;6.90;;;3.53;;
5774;SDS011;2913;51.120;6.772;2022-12-20T09:06:27;8.60;;;4.38;;
5774;SDS011;2913;51.120;6.772;2022-12-20T09:08:56;10.55;;;4.00;;
5774;SDS011;2913;51.120;6.772;2022-12-20T09:11:24;9.75;;;3.80;;
5774;SDS011;2913;51.120;6.772;2022-12-20T09:13:52;9.38;;;3.58;;
5774;SDS011;2913;51.120;6.772;2022-12-20T09:16:21;8.80;;;4.10;;
5774;SDS011;2913;51.120;6.772;2022-12-20T09:18:50;14.40;;;4.65;;
5774;SDS011;2913;51.120;6.772;2022-12-20T09:21:19;9.52;;;4.40;;
5774;SDS011;2913;51.120;6.772;2022-12-20T09:23:45;16.73;;;4.18;;
5774;SDS011;2913;51.120;6.772;2022-12-20T09:26:13;10.25;;;4.45;;
5774;SDS011;2913;51.120;6.772;2022-12-20T09:28:41;10.18;;;3.45;;
5774;SDS011;2913;51.120;6.772;2022-12-20T09:31:13;12.55;;;5.07;;
5774;SDS011;2913;51.120;6.772;2022-12-20T09:33:42;6.82;;;3.80;;
5774;SDS011;2913;51.120;6.772;2022-12-20T09:36:17;8.30;;;4.68;;
5774;SDS011;2913;51.120;6.772;2022-12-20T09:38:44;13.20;;;5.53;;
5774;SDS011;2913;51.120;6.772;2022-12-20T09:41:19;9.23;;;4.20;;
5774;SDS011;2913;51.120;6.772;2022-12-20T09:43:53;7.32;;;3.88;;
5774;SDS011;2913;51.120;6.772;2022-12-20T09:46:20;12.70;;;4.03;;
5774;SDS011;2913;51.120;6.772;2022-12-20T09:48:47;8.60;;;3.72;;
5774;SDS011;2913;51.120;6.772;2022-12-20T09:51:17;11.18;;;3.88;;
5774;SDS011;2913;51.120;6.772;2022-12-20T09:56:30;8.80;;;3.78;;
5774;SDS011;2913;51.120;6.772;2022-12-20T10:01:31;10.13;;;5.00;;
5774;SDS011;2913;51.120;6.772;2022-12-20T10:04:00;11.93;;;4.53;;
5774;SDS011;2913;51.120;6.772;2022-12-20T10:20:33;10.68;;;4.25;;
5774;SDS011;2913;51.120;6.772;2022-12-20T10:28:17;12.18;;;5.03;;
5774;SDS011;2913;51.120;6.772;2022-12-20T10:30:49;9.60;;;4.38;;
5774;SDS011;2913;51.120;6.772;2022-12-20T10:33:23;10.77;;;4.57;;
5774;SDS011;2913;51.120;6.772;2022-12-20T10:35:48;8.68;;;4.55;;
5774;SDS011;2913;51.120;6.772;2022-12-20T10:38:15;10.00;;;4.10;;
5774;SDS011;2913;51.120;6.772;2022-12-20T10:40:57;15.40;;;4.85;;
5774;SDS011;2913;51.120;6.772;2022-12-20T10:43:29;9.07;;;3.88;;
5774;SDS011;2913;51.120;6.772;2022-12-20T10:46:08;11.90;;;4.85;;
5774;SDS011;2913;51.120;6.772;2022-12-20T10:53:35;14.88;;;5.18;;
5774;SDS011;2913;51.120;6.772;2022-12-20T11:01:21;12.15;;;4.05;;
5774;SDS011;2913;51.120;6.772;2022-12-20T11:06:23;10.00;;;4.43;;
5774;SDS011;2913;51.120;6.772;2022-12-20T11:09:09;12.88;;;6.03;;
5774;SDS011;2913;51.120;6.772;2022-12-20T11:14:29;11.23;;;5.13;;
5774;SDS011;2913;51.120;6.772;2022-12-20T11:16:56;13.90;;;6.40;;
5774;SDS011;2913;51.120;6.772;2022-12-20T11:24:30;8.55;;;3.92;;
5774;SDS011;2913;51.120;6.772;2022-12-20T11:30:01;10.10;;;3.75;;
5774;SDS011;2913;51.120;6.772;2022-12-20T11:51:56;7.18;;;3.05;;
5774;SDS011;2913;51.120;6.772;2022-12-20T11:54:25;5.15;;;3.20;;
5774;SDS011;2913;51.120;6.772;2022-12-20T11:57:03;6.53;;;3.30;;
5774;SDS011;2913;51.120;6.772;2022-12-20T11:59:39;5.68;;;3.40;;
5774;SDS011;2913;51.120;6.772;2022-12-20T12:05:17;6.40;;;3.10;;
5774;SDS011;2913;51.120;6.772;2022-12-20T12:08:10;7.97;;;2.92;;
5774;SDS011;2913;51.120;6.772;2022-12-20T12:10:44;7.32;;;3.53;;
5774;SDS011;2913;51.120;6.772;2022-12-20T12:13:22;5.30;;;2.85;;
5774;SDS011;2913;51.120;6.772;2022-12-20T12:18:37;6.45;;;2.85;;
5774;SDS011;2913;51.120;6.772;2022-12-20T12:28:57;7.30;;;2.80;;
5774;SDS011;2913;51.120;6.772;2022-12-20T12:31:26;11.02;;;3.03;;
5774;SDS011;2913;51.120;6.772;2022-12-20T12:36:35;7.60;;;2.72;;
5774;SDS011;2913;51.120;6.772;2022-12-20T12:45:00;5.65;;;2.45;;
5774;SDS011;2913;51.120;6.772;2022-12-20T12:47:37;4.55;;;2.10;;
5774;SDS011;2913;51.120;6.772;2022-12-20T12:53:12;5.38;;;1.95;;
5774;SDS011;2913;51.120;6.772;2022-12-20T13:00:52;4.38;;;2.22;;
5774;SDS011;2913;51.120;6.772;2022-12-20T13:11:32;5.82;;;2.50;;
5774;SDS011;2913;51.120;6.772;2022-12-20T13:19:52;5.55;;;2.97;;
5774;SDS011;2913;51.120;6.772;2022-12-20T13:22:22;8.55;;;3.67;;
5774;SDS011;2913;51.120;6.772;2022-12-20T13:29:55;15.05;;;5.90;;
5774;SDS011;2913;51.120;6.772;2022-12-20T13:38:04;7.80;;;3.20;;
5774;SDS011;2913;51.120;6.772;2022-12-20T13:40:59;7.25;;;3.05;;
5774;SDS011;2913;51.120;6.772;2022-12-20T13:43:34;10.55;;;3.20;;
5774;SDS011;2913;51.120;6.772;2022-12-20T13:51:24;13.10;;;3.85;;
5774;SDS011;2913;51.120;6.772;2022-12-20T13:58:50;12.25;;;4.78;;
5774;SDS011;2913;51.120;6.772;2022-12-20T14:01:17;11.02;;;4.25;;
5774;SDS011;2913;51.120;6.772;2022-12-20T14:03:49;8.25;;;4.22;;
5774;SDS011;2913;51.120;6.772;2022-12-20T14:06:17;9.43;;;4.53;;
5774;SDS011;2913;51.120;6.772;2022-12-20T14:08:47;11.98;;;4.63;;
5774;SDS011;2913;51.120;6.772;2022-12-20T14:11:18;10.48;;;4.55;;
5774;SDS011;2913;51.120;6.772;2022-12-20T14:14:01;10.02;;;3.70;;
5774;SDS011;2913;51.120;6.772;2022-12-20T14:16:29;13.85;;;4.68;;
5774;SDS011;2913;51.120;6.772;2022-12-20T14:21:22;8.35;;;4.35;;
5774;SDS011;2913;51.120;6.772;2022-12-20T14:23:50;16.15;;;6.60;;
5774;SDS011;2913;51.120;6.772;2022-12-20T14:26:32;21.88;;;6.45;;
5774;SDS011;2913;51.120;6.772;2022-12-20T14:29:03;15.48;;;6.57;;
5774;SDS011;2913;51.120;6.772;2022-12-20T14:31:44;16.13;;;6.95;;
5774;SDS011;2913;51.120;6.772;2022-12-20T14:34:31;17.08;;;6.50;;
5774;SDS011;2913;51.120;6.772;2022-12-20T14:42:47;12.35;;;5.55;;
5774;SDS011;2913;51.120;6.772;2022-12-20T14:45:17;11.73;;;5.38;;
5774;SDS011;2913;51.120;6.772;2022-12-20T14:48:01;18.40;;;5.57;;
5774;SDS011;2913;51.120;6.772;2022-12-20T14:50:37;14.02;;;5.00;;
5774;SDS011;2913;51.120;6.772;2022-12-20T14:53:20;14.85;;;5.10;;
5774;SDS011;2913;51.120;6.772;2022-12-20T14:55:52;14.35;;;4.45;;
5774;SDS011;2913;51.120;6.772;2022-12-20T14:58:26;9.18;;;4.65;;
5774;SDS011;2913;51.120;6.772;2022-12-20T15:03:51;16.02;;;5.32;;
5774;SDS011;2913;51.120;6.772;2022-12-20T15:06:38;12.93;;;5.63;;
5774;SDS011;2913;51.120;6.772;2022-12-20T15:09:07;15.82;;;6.70;;
5774;SDS011;2913;51.120;6.772;2022-12-20T15:11:36;25.77;;;10.38;;
5774;SDS011;2913;51.120;6.772;2022-12-20T15:14:09;16.85;;;7.78;;
5774;SDS011;2913;51.120;6.772;2022-12-20T15:16:46;22.92;;;7.80;;
5774;SDS011;2913;51.120;6.772;2022-12-20T15:19:12;18.27;;;7.25;;
5774;SDS011;2913;51.120;6.772;2022-12-20T15:21:39;54.50;;;14.45;;
5774;SDS011;2913;51.120;6.772;2022-12-20T15:24:20;20.17;;;8.32;;
5774;SDS011;2913;51.120;6.772;2022-12-20T15:26:51;23.92;;;8.10;;
5774;SDS011;2913;51.120;6.772;2022-12-20T15:29:20;16.92;;;6.35;;
5774;SDS011;2913;51.120;6.772;2022-12-20T15:31:48;15.10;;;4.90;;
5774;SDS011;2913;51.120;6.772;2022-12-20T15:34:19;13.02;;;5.30;;
5774;SDS011;2913;51.120;6.772;2022-12-20T15:36:49;18.30;;;5.87;;
5774;SDS011;2913;51.120;6.772;2022-12-20T15:39:15;14.88;;;5.63;;
5774;SDS011;2913;51.120;6.772;2022-12-20T15:41:42;12.20;;;5.95;;
5774;SDS011;2913;51.120;6.772;2022-12-20T15:44:20;12.32;;;5.07;;
5774;SDS011;2913;51.120;6.772;2022-12-20T15:46:48;15.43;;;5.90;;
5774;SDS011;2913;51.120;6.772;2022-12-20T15:49:18;14.70;;;5.22;;
5774;SDS011;2913;51.120;6.772;2022-12-20T15:51:48;15.05;;;6.63;;
5774;SDS011;2913;51.120;6.772;2022-12-20T15:54:31;20.35;;;7.00;;
5774;SDS011;2913;51.120;6.772;2022-12-20T15:57:00;16.13;;;6.55;;
5774;SDS011;2913;51.120;6.772;2022-12-20T15:59:31;17.33;;;5.85;;
5774;SDS011;2913;51.120;6.772;2022-12-20T16:02:00;12.70;;;5.68;;
5774;SDS011;2913;51.120;6.772;2022-12-20T16:04:29;17.02;;;5.65;;
5774;SDS011;2913;51.120;6.772;2022-12-20T16:06:57;12.02;;;5.68;;
5774;SDS011;2913;51.120;6.772;2022-12-20T16:09:22;15.75;;;7.13;;
5774;SDS011;2913;51.120;6.772;2022-12-20T16:11:49;19.95;;;5.82;;
5774;SDS011;2913;51.120;6.772;2022-12-20T16:14:18;10.43;;;5.30;;
5774;SDS011;2913;51.120;6.772;2022-12-20T16:16:45;16.20;;;5.90;;
5774;SDS011;2913;51.120;6.772;2022-12-20T16:19:15;18.27;;;6.20;;
5774;SDS011;2913;51.120;6.772;2022-12-20T16:21:45;16.15;;;6.53;;
5774;SDS011;2913;51.120;6.772;2022-12-20T16:24:13;15.45;;;5.60;;
5774;SDS011;2913;51.120;6.772;2022-12-20T16:26:40;17.45;;;7.25;;
5774;SDS011;2913;51.120;6.772;2022-12-20T16:29:13;18.83;;;6.32;;
5774;SDS011;2913;51.120;6.772;2022-12-20T16:31:39;16.73;;;5.25;;
5774;SDS011;2913;51.120;6.772;2022-12-20T16:34:25;14.50;;;6.20;;
5774;SDS011;2913;51.120;6.772;2022-12-20T16:36:51;14.10;;;6.00;;
5774;SDS011;2913;51.120;6.772;2022-12-20T16:39:17;19.90;;;6.03;;
5774;SDS011;2913;51.120;6.772;2022-12-20T16:41:47;14.10;;;6.25;;
5774;SDS011;2913;51.120;6.772;2022-12-20T16:44:13;16.75;;;6.10;;
5774;SDS011;2913;51.120;6.772;2022-12-20T16:46:40;19.15;;;6.95;;
5774;SDS011;2913;51.120;6.772;2022-12-20T16:49:07;15.32;;;6.85;;
5774;SDS011;2913;51.120;6.772;2022-12-20T16:54:11;22.77;;;7.60;;
5774;SDS011;2913;51.120;6.772;2022-12-20T16:56:38;13.32;;;6.57;;
5774;SDS011;2913;51.120;6.772;2022-12-20T16:59:05;17.10;;;6.97;;
5774;SDS011;2913;51.120;6.772;2022-12-20T17:01:33;14.02;;;6.20;;
5774;SDS011;2913;51.120;6.772;2022-12-20T17:04:00;18.77;;;7.50;;
5774;SDS011;2913;51.120;6.772;2022-12-20T17:06:26;14.35;;;6.68;;
5774;SDS011;2913;51.120;6.772;2022-12-20T17:08:52;19.25;;;6.53;;
5774;SDS011;2913;51.120;6.772;2022-12-20T17:13:47;13.77;;;6.55;;
5774;SDS011;2913;51.120;6.772;2022-12-20T17:16:15;15.80;;;6.18;;
5774;SDS011;2913;51.120;6.772;2022-12-20T17:18:47;17.08;;;6.70;;
5774;SDS011;2913;51.120;6.772;2022-12-20T17:23:42;14.52;;;6.30;;
5774;SDS011;2913;51.120;6.772;2022-12-20T17:26:14;15.82;;;7.72;;
5774;SDS011;2913;51.120;6.772;2022-12-20T17:28:42;20.73;;;8.20;;
5774;SDS011;2913;51.120;6.772;2022-12-20T17:31:22;17.55;;;7.63;;
5774;SDS011;2913;51.120;6.772;2022-12-20T17:33:53;20.15;;;7.50;;
5774;SDS011;2913;51.120;6.772;2022-12-20T17:36:19;22.17;;;8.40;;
5774;SDS011;2913;51.120;6.772;2022-12-20T17:38:45;15.57;;;8.30;;
5774;SDS011;2913;51.120;6.772;2022-12-20T17:41:20;15.93;;;7.88;;
5774;SDS011;2913;51.120;6.772;2022-12-20T17:43:48;16.33;;;6.78;;
5774;SDS011;2913;51.120;6.772;2022-12-20T17:46:14;14.80;;;7.43;;
5774;SDS011;2913;51.120;6.772;2022-12-20T17:48:43;16.92;;;6.68;;
5774;SDS011;2913;51.120;6.772;2022-12-20T17:51:17;14.77;;;8.50;;
5774;SDS011;2913;51.120;6.772;2022-12-20T17:53:50;18.27;;;8.50;;
5774;SDS011;2913;51.120;6.772;2022-12-20T17:56:24;14.25;;;7.60;;
5774;SDS011;2913;51.120;6.772;2022-12-20T17:58:54;15.63;;;6.82;;
5774;SDS011;2913;51.120;6.772;2022-12-20T18:03:52;15.10;;;7.85;;
5774;SDS011;2913;51.120;6.772;2022-12-20T18:06:20;14.38;;;7.45;;
5774;SDS011;2913;51.120;6.772;2022-12-20T18:08:47;14.38;;;7.00;;
5774;SDS011;2913;51.120;6.772;2022-12-20T18:11:13;12.88;;;5.32;;
5774;SDS011;2913;51.120;6.772;2022-12-20T18:13:43;11.80;;;5.80;;
5774;SDS011;2913;51.120;6.772;2022-12-20T18:16:13;12.68;;;6.45;;